sensor_id;sensor_type;location;lat;lon;timestamp;P1;durP1;ratioP1;P2;durP2;ratioP2
14817;SDS011;7500;57.698;11.986;2023-04-15T00:02:15;8.63;;;5.17;;
14817;SDS011;7500;57.698;11.986;2023-04-15T00:04:43;6.67;;;5.10;;
14817;SDS011;7500;57.698;11.986;2023-04-15T00:07:09;8.37;;;5.50;;
14817;SDS011;7500;57.698;11.986;2023-04-15T00:09:37;6.73;;;5.50;;
14817;SDS011;7500;57.698;11.986;2023-04-15T00:12:04;8.10;;;5.20;;
14817;SDS011;7500;57.698;11.986;2023-04-15T00:14:31;7.60;;;5.37;;
14817;SDS011;7500;57.698;11.986;2023-04-15T00:16:57;5.57;;;4.60;;
14817;SDS011;7500;57.698;11.986;2023-04-15T00:19:24;6.97;;;5.40;;
14817;SDS011;7500;57.698;11.986;2023-04-15T00:21:50;6.47;;;5.47;;
14817;SDS011;7500;57.698;11.986;2023-04-15T00:24:17;9.30;;;5.57;;
14817;SDS011;7500;57.698;11.986;2023-04-15T00:26:45;8.00;;;5.57;;
14817;SDS011;7500;57.698;11.986;2023-04-15T00:29:12;6.63;;;5.13;;
14817;SDS011;7500;57.698;11.986;2023-04-15T00:31:39;6.33;;;4.83;;
14817;SDS011;7500;57.698;11.986;2023-04-15T00:34:06;8.90;;;5.17;;
14817;SDS011;7500;57.698;11.986;2023-04-15T00:36:32;5.70;;;4.80;;
14817;SDS011;7500;57.698;11.986;2023-04-15T00:38:59;7.63;;;5.60;;
14817;SDS011;7500;57.698;11.986;2023-04-15T00:41:26;7.63;;;5.57;;
14817;SDS011;7500;57.698;11.986;2023-04-15T00:43:55;6.37;;;4.97;;
14817;SDS011;7500;57.698;11.986;2023-04-15T00:46:21;7.87;;;5.37;;
14817;SDS011;7500;57.698;11.986;2023-04-15T00:48:49;7.97;;;5.57;;
14817;SDS011;7500;57.698;11.986;2023-04-15T00:51:16;7.57;;;4.87;;
14817;SDS011;7500;57.698;11.986;2023-04-15T00:53:43;6.70;;;5.37;;
14817;SDS011;7500;57.698;11.986;2023-04-15T00:56:09;5.60;;;5.00;;
14817;SDS011;7500;57.698;11.986;2023-04-15T00:58:36;5.87;;;5.10;;
14817;SDS011;7500;57.698;11.986;2023-04-15T01:01:04;8.43;;;5.53;;
14817;SDS011;7500;57.698;11.986;2023-04-15T01:03:31;7.13;;;5.67;;
14817;SDS011;7500;57.698;11.986;2023-04-15T01:05:57;8.03;;;5.67;;
14817;SDS011;7500;57.698;11.986;2023-04-15T01:08:25;5.63;;;5.07;;
14817;SDS011;7500;57.698;11.986;2023-04-15T01:10:53;7.70;;;5.30;;
14817;SDS011;7500;57.698;11.986;2023-04-15T01:13:19;5.70;;;5.10;;
14817;SDS011;7500;57.698;11.986;2023-04-15T01:15:46;5.60;;;4.83;;
14817;SDS011;7500;57.698;11.986;2023-04-15T01:18:14;6.20;;;5.20;;
14817;SDS011;7500;57.698;11.986;2023-04-15T01:20:41;6.07;;;4.73;;
14817;SDS011;7500;57.698;11.986;2023-04-15T01:23:08;6.77;;;5.20;;
14817;SDS011;7500;57.698;11.986;2023-04-15T01:25:36;7.33;;;5.43;;
14817;SDS011;7500;57.698;11.986;2023-04-15T01:28:03;6.70;;;5.23;;
14817;SDS011;7500;57.698;11.986;2023-04-15T01:30:32;7.53;;;5.30;;
14817;SDS011;7500;57.698;11.986;2023-04-15T01:32:59;7.37;;;5.47;;
14817;SDS011;7500;57.698;11.986;2023-04-15T01:35:25;7.43;;;5.33;;
14817;SDS011;7500;57.698;11.986;2023-04-15T01:37:52;6.63;;;5.17;;
14817;SDS011;7500;57.698;11.986;2023-04-15T01:40:19;7.27;;;5.10;;
14817;SDS011;7500;57.698;11.986;2023-04-15T01:42:48;7.17;;;5.07;;
14817;SDS011;7500;57.698;11.986;2023-04-15T01:45:15;6.73;;;5.50;;
14817;SDS011;7500;57.698;11.986;2023-04-15T01:47:41;8.73;;;5.10;;
14817;SDS011;7500;57.698;11.986;2023-04-15T01:50:08;6.97;;;5.43;;
14817;SDS011;7500;57.698;11.986;2023-04-15T01:52:35;7.60;;;5.33;;
14817;SDS011;7500;57.698;11.986;2023-04-15T01:55:02;7.13;;;5.27;;
14817;SDS011;7500;57.698;11.986;2023-04-15T01:57:29;7.83;;;5.17;;
14817;SDS011;7500;57.698;11.986;2023-04-15T01:59:56;6.00;;;4.80;;
14817;SDS011;7500;57.698;11.986;2023-04-15T02:02:23;6.00;;;5.17;;
14817;SDS011;7500;57.698;11.986;2023-04-15T02:04:50;9.13;;;5.67;;
14817;SDS011;7500;57.698;11.986;2023-04-15T02:07:16;6.20;;;5.03;;
14817;SDS011;7500;57.698;11.986;2023-04-15T02:09:43;8.37;;;5.63;;
14817;SDS011;7500;57.698;11.986;2023-04-15T02:12:10;9.00;;;5.53;;
14817;SDS011;7500;57.698;11.986;2023-04-15T02:14:37;6.73;;;4.83;;
14817;SDS011;7500;57.698;11.986;2023-04-15T02:17:05;8.13;;;5.57;;
14817;SDS011;7500;57.698;11.986;2023-04-15T02:19:32;6.97;;;5.30;;
14817;SDS011;7500;57.698;11.986;2023-04-15T02:21:59;9.57;;;4.90;;
14817;SDS011;7500;57.698;11.986;2023-04-15T02:24:26;6.17;;;4.80;;
14817;SDS011;7500;57.698;11.986;2023-04-15T02:26:53;6.60;;;5.40;;
14817;SDS011;7500;57.698;11.986;2023-04-15T02:29:20;8.27;;;5.13;;
14817;SDS011;7500;57.698;11.986;2023-04-15T02:31:47;6.57;;;5.23;;
14817;SDS011;7500;57.698;11.986;2023-04-15T02:34:14;8.63;;;5.57;;
14817;SDS011;7500;57.698;11.986;2023-04-15T02:36:41;6.30;;;5.23;;
14817;SDS011;7500;57.698;11.986;2023-04-15T02:39:08;6.10;;;5.50;;
14817;SDS011;7500;57.698;11.986;2023-04-15T02:41:35;7.80;;;5.53;;
14817;SDS011;7500;57.698;11.986;2023-04-15T02:44:02;7.77;;;5.33;;
14817;SDS011;7500;57.698;11.986;2023-04-15T02:46:28;7.83;;;5.20;;
14817;SDS011;7500;57.698;11.986;2023-04-15T02:48:55;6.23;;;5.20;;
14817;SDS011;7500;57.698;11.986;2023-04-15T02:51:25;7.03;;;5.37;;
14817;SDS011;7500;57.698;11.986;2023-04-15T02:53:51;6.13;;;5.27;;
14817;SDS011;7500;57.698;11.986;2023-04-15T02:56:18;8.03;;;5.57;;
14817;SDS011;7500;57.698;11.986;2023-04-15T02:58:44;7.23;;;6.00;;
14817;SDS011;7500;57.698;11.986;2023-04-15T03:01:11;7.00;;;5.30;;
14817;SDS011;7500;57.698;11.986;2023-04-15T03:03:38;6.83;;;5.60;;
14817;SDS011;7500;57.698;11.986;2023-04-15T03:06:05;6.80;;;5.77;;
14817;SDS011;7500;57.698;11.986;2023-04-15T03:08:34;6.67;;;5.50;;
14817;SDS011;7500;57.698;11.986;2023-04-15T03:11:01;7.83;;;5.53;;
14817;SDS011;7500;57.698;11.986;2023-04-15T03:13:27;6.77;;;5.57;;
14817;SDS011;7500;57.698;11.986;2023-04-15T03:15:54;7.40;;;5.73;;
14817;SDS011;7500;57.698;11.986;2023-04-15T03:18:21;7.50;;;5.73;;
14817;SDS011;7500;57.698;11.986;2023-04-15T03:20:49;6.00;;;5.23;;
14817;SDS011;7500;57.698;11.986;2023-04-15T03:23:15;6.37;;;5.50;;
14817;SDS011;7500;57.698;11.986;2023-04-15T03:25:44;8.43;;;5.80;;
14817;SDS011;7500;57.698;11.986;2023-04-15T03:28:11;5.93;;;5.33;;
14817;SDS011;7500;57.698;11.986;2023-04-15T03:30:37;7.17;;;5.27;;
14817;SDS011;7500;57.698;11.986;2023-04-15T03:33:04;7.40;;;5.80;;
14817;SDS011;7500;57.698;11.986;2023-04-15T03:35:31;6.63;;;5.33;;
14817;SDS011;7500;57.698;11.986;2023-04-15T03:37:57;6.27;;;5.30;;
14817;SDS011;7500;57.698;11.986;2023-04-15T03:40:24;5.93;;;5.33;;
14817;SDS011;7500;57.698;11.986;2023-04-15T03:42:52;5.87;;;5.27;;
14817;SDS011;7500;57.698;11.986;2023-04-15T03:45:19;6.87;;;5.50;;
14817;SDS011;7500;57.698;11.986;2023-04-15T03:47:45;6.20;;;5.60;;
14817;SDS011;7500;57.698;11.986;2023-04-15T03:50:12;7.03;;;5.67;;
14817;SDS011;7500;57.698;11.986;2023-04-15T03:52:39;7.83;;;5.27;;
14817;SDS011;7500;57.698;11.986;2023-04-15T03:55:05;8.60;;;5.80;;
14817;SDS011;7500;57.698;11.986;2023-04-15T03:57:32;7.20;;;5.70;;
14817;SDS011;7500;57.698;11.986;2023-04-15T04:00:04;8.07;;;5.63;;
14817;SDS011;7500;57.698;11.986;2023-04-15T04:02:30;6.93;;;5.30;;
14817;SDS011;7500;57.698;11.986;2023-04-15T04:04:57;6.90;;;5.20;;
14817;SDS011;7500;57.698;11.986;2023-04-15T04:07:23;8.43;;;6.07;;
14817;SDS011;7500;57.698;11.986;2023-04-15T04:09:50;5.97;;;5.10;;
14817;SDS011;7500;57.698;11.986;2023-04-15T04:12:17;7.07;;;5.50;;
14817;SDS011;7500;57.698;11.986;2023-04-15T04:14:43;6.90;;;5.30;;
14817;SDS011;7500;57.698;11.986;2023-04-15T04:17:11;6.97;;;5.67;;
14817;SDS011;7500;57.698;11.986;2023-04-15T04:19:38;10.57;;;5.70;;
14817;SDS011;7500;57.698;11.986;2023-04-15T04:22:04;8.50;;;5.53;;
14817;SDS011;7500;57.698;11.986;2023-04-15T04:24:31;8.67;;;5.17;;
14817;SDS011;7500;57.698;11.986;2023-04-15T04:26:57;8.50;;;5.53;;
14817;SDS011;7500;57.698;11.986;2023-04-15T04:29:25;6.33;;;5.03;;
14817;SDS011;7500;57.698;11.986;2023-04-15T04:31:51;10.20;;;5.93;;
14817;SDS011;7500;57.698;11.986;2023-04-15T04:34:19;7.03;;;5.50;;
14817;SDS011;7500;57.698;11.986;2023-04-15T04:36:46;7.30;;;5.73;;
14817;SDS011;7500;57.698;11.986;2023-04-15T04:39:12;9.40;;;5.43;;
14817;SDS011;7500;57.698;11.986;2023-04-15T04:41:39;8.53;;;5.00;;
14817;SDS011;7500;57.698;11.986;2023-04-15T04:44:05;9.00;;;5.53;;
14817;SDS011;7500;57.698;11.986;2023-04-15T04:46:32;7.00;;;4.93;;
14817;SDS011;7500;57.698;11.986;2023-04-15T04:48:59;8.50;;;5.33;;
14817;SDS011;7500;57.698;11.986;2023-04-15T04:51:27;8.93;;;5.70;;
14817;SDS011;7500;57.698;11.986;2023-04-15T04:53:53;9.40;;;5.77;;
14817;SDS011;7500;57.698;11.986;2023-04-15T04:56:20;9.33;;;5.30;;
14817;SDS011;7500;57.698;11.986;2023-04-15T04:58:47;9.33;;;5.60;;
14817;SDS011;7500;57.698;11.986;2023-04-15T05:01:13;8.77;;;5.37;;
14817;SDS011;7500;57.698;11.986;2023-04-15T05:03:40;7.63;;;5.60;;
14817;SDS011;7500;57.698;11.986;2023-04-15T05:06:06;7.90;;;5.83;;
14817;SDS011;7500;57.698;11.986;2023-04-15T05:08:35;9.53;;;5.43;;
14817;SDS011;7500;57.698;11.986;2023-04-15T05:11:02;10.40;;;5.50;;
14817;SDS011;7500;57.698;11.986;2023-04-15T05:13:28;7.80;;;5.10;;
14817;SDS011;7500;57.698;11.986;2023-04-15T05:15:55;7.03;;;5.20;;
14817;SDS011;7500;57.698;11.986;2023-04-15T05:18:22;9.43;;;5.50;;
14817;SDS011;7500;57.698;11.986;2023-04-15T05:20:48;9.77;;;5.37;;
14817;SDS011;7500;57.698;11.986;2023-04-15T05:23:15;7.77;;;5.30;;
14817;SDS011;7500;57.698;11.986;2023-04-15T05:25:43;8.53;;;5.30;;
14817;SDS011;7500;57.698;11.986;2023-04-15T05:28:09;9.47;;;5.60;;
14817;SDS011;7500;57.698;11.986;2023-04-15T05:30:36;7.20;;;5.13;;
14817;SDS011;7500;57.698;11.986;2023-04-15T05:33:03;7.73;;;5.17;;
14817;SDS011;7500;57.698;11.986;2023-04-15T05:35:30;10.13;;;5.87;;
14817;SDS011;7500;57.698;11.986;2023-04-15T05:37:56;9.13;;;5.77;;
14817;SDS011;7500;57.698;11.986;2023-04-15T05:40:23;8.43;;;5.10;;
14817;SDS011;7500;57.698;11.986;2023-04-15T05:42:51;9.10;;;6.10;;
14817;SDS011;7500;57.698;11.986;2023-04-15T05:45:17;9.23;;;5.63;;
14817;SDS011;7500;57.698;11.986;2023-04-15T05:47:44;8.57;;;6.00;;
14817;SDS011;7500;57.698;11.986;2023-04-15T05:50:10;9.57;;;5.30;;
14817;SDS011;7500;57.698;11.986;2023-04-15T05:52:37;9.73;;;6.00;;
14817;SDS011;7500;57.698;11.986;2023-04-15T05:55:04;11.30;;;6.00;;
14817;SDS011;7500;57.698;11.986;2023-04-15T05:57:31;10.37;;;5.57;;
14817;SDS011;7500;57.698;11.986;2023-04-15T05:59:59;11.73;;;5.73;;
14817;SDS011;7500;57.698;11.986;2023-04-15T06:02:25;7.93;;;5.87;;
14817;SDS011;7500;57.698;11.986;2023-04-15T06:04:52;8.87;;;6.20;;
14817;SDS011;7500;57.698;11.986;2023-04-15T06:07:19;8.03;;;5.50;;
14817;SDS011;7500;57.698;11.986;2023-04-15T06:09:45;11.23;;;5.63;;
14817;SDS011;7500;57.698;11.986;2023-04-15T06:12:12;9.40;;;5.93;;
14817;SDS011;7500;57.698;11.986;2023-04-15T06:14:39;9.70;;;6.03;;
14817;SDS011;7500;57.698;11.986;2023-04-15T06:17:07;10.90;;;6.30;;
14817;SDS011;7500;57.698;11.986;2023-04-15T06:19:34;9.50;;;5.80;;
14817;SDS011;7500;57.698;11.986;2023-04-15T06:22:00;9.37;;;6.13;;
14817;SDS011;7500;57.698;11.986;2023-04-15T06:24:27;7.47;;;5.90;;
14817;SDS011;7500;57.698;11.986;2023-04-15T06:26:54;12.73;;;6.57;;
14817;SDS011;7500;57.698;11.986;2023-04-15T06:29:21;8.63;;;5.80;;
14817;SDS011;7500;57.698;11.986;2023-04-15T06:31:48;8.73;;;6.10;;
14817;SDS011;7500;57.698;11.986;2023-04-15T06:34:16;7.50;;;5.77;;
14817;SDS011;7500;57.698;11.986;2023-04-15T06:36:43;8.40;;;5.90;;
14817;SDS011;7500;57.698;11.986;2023-04-15T06:39:09;11.13;;;6.27;;
14817;SDS011;7500;57.698;11.986;2023-04-15T06:41:36;10.00;;;6.70;;
14817;SDS011;7500;57.698;11.986;2023-04-15T06:44:03;12.00;;;6.43;;
14817;SDS011;7500;57.698;11.986;2023-04-15T06:46:29;11.83;;;6.40;;
14817;SDS011;7500;57.698;11.986;2023-04-15T06:48:56;9.27;;;5.80;;
14817;SDS011;7500;57.698;11.986;2023-04-15T06:51:24;10.37;;;5.93;;
14817;SDS011;7500;57.698;11.986;2023-04-15T06:53:51;9.97;;;5.97;;
14817;SDS011;7500;57.698;11.986;2023-04-15T06:56:18;10.83;;;6.10;;
14817;SDS011;7500;57.698;11.986;2023-04-15T06:58:44;10.10;;;6.43;;
14817;SDS011;7500;57.698;11.986;2023-04-15T07:01:11;10.07;;;6.57;;
14817;SDS011;7500;57.698;11.986;2023-04-15T07:03:38;10.57;;;5.73;;
14817;SDS011;7500;57.698;11.986;2023-04-15T07:06:05;12.57;;;6.33;;
14817;SDS011;7500;57.698;11.986;2023-04-15T07:08:35;10.93;;;7.03;;
14817;SDS011;7500;57.698;11.986;2023-04-15T07:11:01;11.13;;;6.83;;
14817;SDS011;7500;57.698;11.986;2023-04-15T07:13:29;11.83;;;6.57;;
14817;SDS011;7500;57.698;11.986;2023-04-15T07:15:56;11.30;;;6.83;;
14817;SDS011;7500;57.698;11.986;2023-04-15T07:18:22;10.87;;;6.80;;
14817;SDS011;7500;57.698;11.986;2023-04-15T07:20:49;9.33;;;6.20;;
14817;SDS011;7500;57.698;11.986;2023-04-15T07:23:16;10.90;;;6.90;;
14817;SDS011;7500;57.698;11.986;2023-04-15T07:25:44;11.37;;;6.73;;
14817;SDS011;7500;57.698;11.986;2023-04-15T07:28:11;10.57;;;7.00;;
14817;SDS011;7500;57.698;11.986;2023-04-15T07:30:38;10.27;;;7.03;;
14817;SDS011;7500;57.698;11.986;2023-04-15T07:33:04;9.87;;;6.77;;
14817;SDS011;7500;57.698;11.986;2023-04-15T07:35:31;9.13;;;6.20;;
14817;SDS011;7500;57.698;11.986;2023-04-15T07:37:57;11.00;;;6.23;;
14817;SDS011;7500;57.698;11.986;2023-04-15T07:40:24;11.60;;;6.50;;
14817;SDS011;7500;57.698;11.986;2023-04-15T07:42:52;10.80;;;6.73;;
14817;SDS011;7500;57.698;11.986;2023-04-15T07:45:19;9.33;;;6.57;;
14817;SDS011;7500;57.698;11.986;2023-04-15T07:47:45;9.07;;;5.87;;
14817;SDS011;7500;57.698;11.986;2023-04-15T07:50:12;8.77;;;6.50;;
14817;SDS011;7500;57.698;11.986;2023-04-15T07:52:41;12.13;;;6.70;;
14817;SDS011;7500;57.698;11.986;2023-04-15T07:55:08;9.63;;;6.23;;
14817;SDS011;7500;57.698;11.986;2023-04-15T07:57:35;10.30;;;6.60;;
14817;SDS011;7500;57.698;11.986;2023-04-15T08:00:03;10.93;;;7.23;;
14817;SDS011;7500;57.698;11.986;2023-04-15T08:02:31;10.60;;;7.37;;
14817;SDS011;7500;57.698;11.986;2023-04-15T08:04:58;11.20;;;7.30;;
14817;SDS011;7500;57.698;11.986;2023-04-15T08:07:27;10.60;;;6.67;;
14817;SDS011;7500;57.698;11.986;2023-04-15T08:09:53;9.07;;;6.50;;
14817;SDS011;7500;57.698;11.986;2023-04-15T08:12:20;9.73;;;6.40;;
14817;SDS011;7500;57.698;11.986;2023-04-15T08:14:46;10.67;;;6.80;;
14817;SDS011;7500;57.698;11.986;2023-04-15T08:17:14;10.37;;;6.60;;
14817;SDS011;7500;57.698;11.986;2023-04-15T08:19:41;10.30;;;6.73;;
14817;SDS011;7500;57.698;11.986;2023-04-15T08:22:08;10.00;;;6.63;;
14817;SDS011;7500;57.698;11.986;2023-04-15T08:24:36;9.60;;;6.83;;
14817;SDS011;7500;57.698;11.986;2023-04-15T08:27:02;9.23;;;6.40;;
14817;SDS011;7500;57.698;11.986;2023-04-15T08:29:29;13.40;;;6.93;;
14817;SDS011;7500;57.698;11.986;2023-04-15T08:31:56;13.80;;;6.50;;
14817;SDS011;7500;57.698;11.986;2023-04-15T08:34:26;12.30;;;6.87;;
14817;SDS011;7500;57.698;11.986;2023-04-15T08:36:52;10.97;;;6.60;;
14817;SDS011;7500;57.698;11.986;2023-04-15T08:39:19;10.07;;;6.53;;
14817;SDS011;7500;57.698;11.986;2023-04-15T08:41:46;10.03;;;6.80;;
14817;SDS011;7500;57.698;11.986;2023-04-15T08:44:13;8.63;;;5.87;;
14817;SDS011;7500;57.698;11.986;2023-04-15T08:46:40;13.80;;;6.53;;
14817;SDS011;7500;57.698;11.986;2023-04-15T08:49:10;12.83;;;6.60;;
14817;SDS011;7500;57.698;11.986;2023-04-15T08:51:39;10.30;;;6.73;;
14817;SDS011;7500;57.698;11.986;2023-04-15T08:54:06;10.03;;;6.77;;
14817;SDS011;7500;57.698;11.986;2023-04-15T08:56:33;9.53;;;6.17;;
14817;SDS011;7500;57.698;11.986;2023-04-15T08:59:01;11.10;;;6.80;;
14817;SDS011;7500;57.698;11.986;2023-04-15T09:01:27;10.17;;;6.37;;
14817;SDS011;7500;57.698;11.986;2023-04-15T09:03:55;11.43;;;6.33;;
14817;SDS011;7500;57.698;11.986;2023-04-15T09:06:21;7.97;;;6.13;;
14817;SDS011;7500;57.698;11.986;2023-04-15T09:08:49;10.17;;;5.97;;
14817;SDS011;7500;57.698;11.986;2023-04-15T09:11:17;11.10;;;6.10;;
14817;SDS011;7500;57.698;11.986;2023-04-15T09:13:43;10.03;;;5.77;;
14817;SDS011;7500;57.698;11.986;2023-04-15T09:16:10;7.80;;;5.87;;
14817;SDS011;7500;57.698;11.986;2023-04-15T09:18:38;8.53;;;5.80;;
14817;SDS011;7500;57.698;11.986;2023-04-15T09:21:05;10.33;;;6.23;;
14817;SDS011;7500;57.698;11.986;2023-04-15T09:23:33;10.13;;;6.37;;
14817;SDS011;7500;57.698;11.986;2023-04-15T09:26:01;13.57;;;6.07;;
14817;SDS011;7500;57.698;11.986;2023-04-15T09:28:28;10.10;;;6.00;;
14817;SDS011;7500;57.698;11.986;2023-04-15T09:30:55;10.13;;;6.47;;
14817;SDS011;7500;57.698;11.986;2023-04-15T09:33:22;10.73;;;7.00;;
14817;SDS011;7500;57.698;11.986;2023-04-15T09:35:55;11.23;;;6.57;;
14817;SDS011;7500;57.698;11.986;2023-04-15T09:38:22;8.73;;;6.00;;
14817;SDS011;7500;57.698;11.986;2023-04-15T09:40:48;10.30;;;6.20;;
14817;SDS011;7500;57.698;11.986;2023-04-15T09:43:16;8.23;;;5.90;;
14817;SDS011;7500;57.698;11.986;2023-04-15T09:45:46;12.53;;;6.70;;
14817;SDS011;7500;57.698;11.986;2023-04-15T09:48:16;10.03;;;6.00;;
14817;SDS011;7500;57.698;11.986;2023-04-15T09:50:44;10.87;;;6.30;;
14817;SDS011;7500;57.698;11.986;2023-04-15T09:53:15;12.60;;;7.03;;
14817;SDS011;7500;57.698;11.986;2023-04-15T09:55:42;10.40;;;6.63;;
14817;SDS011;7500;57.698;11.986;2023-04-15T09:58:09;18.10;;;7.10;;
14817;SDS011;7500;57.698;11.986;2023-04-15T10:00:44;11.63;;;6.70;;
14817;SDS011;7500;57.698;11.986;2023-04-15T10:03:12;8.10;;;6.43;;
14817;SDS011;7500;57.698;11.986;2023-04-15T10:05:40;11.57;;;6.77;;
14817;SDS011;7500;57.698;11.986;2023-04-15T10:08:07;7.87;;;6.57;;
14817;SDS011;7500;57.698;11.986;2023-04-15T10:10:33;9.10;;;7.13;;
14817;SDS011;7500;57.698;11.986;2023-04-15T10:13:00;8.90;;;6.63;;
14817;SDS011;7500;57.698;11.986;2023-04-15T10:15:27;10.47;;;6.77;;
14817;SDS011;7500;57.698;11.986;2023-04-15T10:17:55;11.13;;;7.17;;
14817;SDS011;7500;57.698;11.986;2023-04-15T10:20:23;6.93;;;6.07;;
14817;SDS011;7500;57.698;11.986;2023-04-15T10:22:50;9.87;;;6.77;;
14817;SDS011;7500;57.698;11.986;2023-04-15T10:25:18;10.37;;;6.80;;
14817;SDS011;7500;57.698;11.986;2023-04-15T10:27:45;10.57;;;6.77;;
14817;SDS011;7500;57.698;11.986;2023-04-15T10:30:12;11.13;;;6.60;;
14817;SDS011;7500;57.698;11.986;2023-04-15T10:32:39;9.63;;;6.70;;
14817;SDS011;7500;57.698;11.986;2023-04-15T10:35:08;8.37;;;6.63;;
14817;SDS011;7500;57.698;11.986;2023-04-15T10:37:35;9.83;;;6.60;;
14817;SDS011;7500;57.698;11.986;2023-04-15T10:42:43;10.50;;;6.57;;
14817;SDS011;7500;57.698;11.986;2023-04-15T10:45:14;6.93;;;6.20;;
14817;SDS011;7500;57.698;11.986;2023-04-15T10:47:42;11.80;;;7.40;;
14817;SDS011;7500;57.698;11.986;2023-04-15T10:50:10;8.90;;;6.73;;
14817;SDS011;7500;57.698;11.986;2023-04-15T10:52:38;12.27;;;6.63;;
14817;SDS011;7500;57.698;11.986;2023-04-15T10:55:11;11.67;;;6.37;;
14817;SDS011;7500;57.698;11.986;2023-04-15T10:57:38;10.20;;;7.07;;
14817;SDS011;7500;57.698;11.986;2023-04-15T11:00:11;8.63;;;7.10;;
14817;SDS011;7500;57.698;11.986;2023-04-15T11:02:42;8.17;;;6.93;;
14817;SDS011;7500;57.698;11.986;2023-04-15T11:05:10;8.40;;;6.80;;
14817;SDS011;7500;57.698;11.986;2023-04-15T11:07:38;10.37;;;7.17;;
14817;SDS011;7500;57.698;11.986;2023-04-15T11:12:51;8.53;;;6.67;;
14817;SDS011;7500;57.698;11.986;2023-04-15T11:15:26;11.07;;;6.63;;
14817;SDS011;7500;57.698;11.986;2023-04-15T11:17:53;9.40;;;6.77;;
14817;SDS011;7500;57.698;11.986;2023-04-15T11:20:21;9.23;;;6.83;;
14817;SDS011;7500;57.698;11.986;2023-04-15T11:22:47;10.67;;;6.80;;
14817;SDS011;7500;57.698;11.986;2023-04-15T11:25:21;8.37;;;7.20;;
14817;SDS011;7500;57.698;11.986;2023-04-15T11:27:47;12.93;;;7.70;;
14817;SDS011;7500;57.698;11.986;2023-04-15T11:30:18;11.40;;;7.03;;
14817;SDS011;7500;57.698;11.986;2023-04-15T11:32:45;9.43;;;6.87;;
14817;SDS011;7500;57.698;11.986;2023-04-15T11:35:12;8.50;;;6.40;;
14817;SDS011;7500;57.698;11.986;2023-04-15T11:37:40;8.50;;;6.33;;
14817;SDS011;7500;57.698;11.986;2023-04-15T11:40:07;6.90;;;6.20;;
14817;SDS011;7500;57.698;11.986;2023-04-15T11:42:34;8.40;;;7.53;;
14817;SDS011;7500;57.698;11.986;2023-04-15T11:45:07;8.40;;;6.13;;
14817;SDS011;7500;57.698;11.986;2023-04-15T11:47:33;16.63;;;6.33;;
14817;SDS011;7500;57.698;11.986;2023-04-15T11:50:12;8.53;;;6.17;;
14817;SDS011;7500;57.698;11.986;2023-04-15T11:52:42;10.23;;;6.70;;
14817;SDS011;7500;57.698;11.986;2023-04-15T11:55:17;6.93;;;6.33;;
14817;SDS011;7500;57.698;11.986;2023-04-15T11:57:44;7.13;;;6.43;;
14817;SDS011;7500;57.698;11.986;2023-04-15T12:00:11;8.23;;;6.97;;
14817;SDS011;7500;57.698;11.986;2023-04-15T12:02:37;8.67;;;6.90;;
14817;SDS011;7500;57.698;11.986;2023-04-15T12:05:04;8.37;;;6.93;;
14817;SDS011;7500;57.698;11.986;2023-04-15T12:07:31;7.70;;;6.90;;
14817;SDS011;7500;57.698;11.986;2023-04-15T12:10:00;9.80;;;6.57;;
14817;SDS011;7500;57.698;11.986;2023-04-15T12:12:28;7.00;;;6.30;;
14817;SDS011;7500;57.698;11.986;2023-04-15T12:14:55;7.23;;;6.63;;
14817;SDS011;7500;57.698;11.986;2023-04-15T12:17:21;8.57;;;6.70;;
14817;SDS011;7500;57.698;11.986;2023-04-15T12:19:54;7.97;;;7.00;;
14817;SDS011;7500;57.698;11.986;2023-04-15T12:22:21;10.17;;;6.17;;
14817;SDS011;7500;57.698;11.986;2023-04-15T12:24:53;8.97;;;6.73;;
14817;SDS011;7500;57.698;11.986;2023-04-15T12:27:24;7.20;;;6.47;;
14817;SDS011;7500;57.698;11.986;2023-04-15T12:29:54;8.77;;;6.70;;
14817;SDS011;7500;57.698;11.986;2023-04-15T12:32:28;8.10;;;6.33;;
14817;SDS011;7500;57.698;11.986;2023-04-15T12:34:55;6.47;;;5.87;;
14817;SDS011;7500;57.698;11.986;2023-04-15T12:37:22;7.77;;;6.37;;
14817;SDS011;7500;57.698;11.986;2023-04-15T12:39:49;7.53;;;6.17;;
14817;SDS011;7500;57.698;11.986;2023-04-15T12:42:15;6.47;;;5.83;;
14817;SDS011;7500;57.698;11.986;2023-04-15T12:44:43;7.40;;;5.77;;
14817;SDS011;7500;57.698;11.986;2023-04-15T12:47:10;8.90;;;6.00;;
14817;SDS011;7500;57.698;11.986;2023-04-15T12:49:37;7.83;;;6.00;;
14817;SDS011;7500;57.698;11.986;2023-04-15T12:52:05;8.33;;;5.83;;
14817;SDS011;7500;57.698;11.986;2023-04-15T12:54:31;7.10;;;5.97;;
14817;SDS011;7500;57.698;11.986;2023-04-15T12:56:58;7.93;;;5.77;;
14817;SDS011;7500;57.698;11.986;2023-04-15T12:59:25;7.33;;;5.50;;
14817;SDS011;7500;57.698;11.986;2023-04-15T13:01:53;7.03;;;5.23;;
14817;SDS011;7500;57.698;11.986;2023-04-15T13:04:20;8.27;;;5.50;;
14817;SDS011;7500;57.698;11.986;2023-04-15T13:06:46;7.53;;;5.57;;
14817;SDS011;7500;57.698;11.986;2023-04-15T13:09:13;7.93;;;5.37;;
14817;SDS011;7500;57.698;11.986;2023-04-15T13:11:40;7.37;;;5.10;;
14817;SDS011;7500;57.698;11.986;2023-04-15T13:14:07;8.10;;;5.30;;
14817;SDS011;7500;57.698;11.986;2023-04-15T13:16:33;10.30;;;5.80;;
14817;SDS011;7500;57.698;11.986;2023-04-15T13:19:02;8.97;;;5.80;;
14817;SDS011;7500;57.698;11.986;2023-04-15T13:21:29;6.13;;;5.50;;
14817;SDS011;7500;57.698;11.986;2023-04-15T13:23:59;6.23;;;5.10;;
14817;SDS011;7500;57.698;11.986;2023-04-15T13:26:25;6.20;;;5.13;;
14817;SDS011;7500;57.698;11.986;2023-04-15T13:28:52;6.83;;;5.43;;
14817;SDS011;7500;57.698;11.986;2023-04-15T13:31:18;7.20;;;5.40;;
14817;SDS011;7500;57.698;11.986;2023-04-15T13:33:45;5.67;;;4.70;;
14817;SDS011;7500;57.698;11.986;2023-04-15T13:36:13;9.40;;;5.90;;
14817;SDS011;7500;57.698;11.986;2023-04-15T13:38:40;5.70;;;4.43;;
14817;SDS011;7500;57.698;11.986;2023-04-15T13:41:06;7.40;;;4.20;;
14817;SDS011;7500;57.698;11.986;2023-04-15T13:43:33;7.87;;;4.13;;
14817;SDS011;7500;57.698;11.986;2023-04-15T13:45:59;5.23;;;4.07;;
14817;SDS011;7500;57.698;11.986;2023-04-15T13:48:27;7.17;;;4.40;;
14817;SDS011;7500;57.698;11.986;2023-04-15T13:50:53;5.00;;;4.50;;
14817;SDS011;7500;57.698;11.986;2023-04-15T13:53:21;6.20;;;4.67;;
14817;SDS011;7500;57.698;11.986;2023-04-15T13:55:48;6.37;;;4.33;;
14817;SDS011;7500;57.698;11.986;2023-04-15T13:58:14;5.00;;;4.37;;
14817;SDS011;7500;57.698;11.986;2023-04-15T14:00:41;5.50;;;4.00;;
14817;SDS011;7500;57.698;11.986;2023-04-15T14:03:08;7.10;;;4.17;;
14817;SDS011;7500;57.698;11.986;2023-04-15T14:05:34;6.73;;;4.40;;
14817;SDS011;7500;57.698;11.986;2023-04-15T14:08:01;5.70;;;4.30;;
14817;SDS011;7500;57.698;11.986;2023-04-15T14:10:29;9.50;;;4.60;;
14817;SDS011;7500;57.698;11.986;2023-04-15T14:12:55;5.90;;;4.13;;
14817;SDS011;7500;57.698;11.986;2023-04-15T14:15:22;7.40;;;4.27;;
14817;SDS011;7500;57.698;11.986;2023-04-15T14:17:48;9.77;;;4.13;;
14817;SDS011;7500;57.698;11.986;2023-04-15T14:20:15;5.40;;;4.13;;
14817;SDS011;7500;57.698;11.986;2023-04-15T14:22:41;7.27;;;4.13;;
14817;SDS011;7500;57.698;11.986;2023-04-15T14:25:08;6.53;;;4.23;;
14817;SDS011;7500;57.698;11.986;2023-04-15T14:27:36;5.47;;;3.60;;
14817;SDS011;7500;57.698;11.986;2023-04-15T14:30:03;4.10;;;3.70;;
14817;SDS011;7500;57.698;11.986;2023-04-15T14:32:30;5.27;;;4.00;;
14817;SDS011;7500;57.698;11.986;2023-04-15T14:34:56;8.53;;;4.20;;
14817;SDS011;7500;57.698;11.986;2023-04-15T14:37:23;7.87;;;4.33;;
14817;SDS011;7500;57.698;11.986;2023-04-15T14:39:50;4.67;;;3.80;;
14817;SDS011;7500;57.698;11.986;2023-04-15T14:42:17;5.23;;;3.83;;
14817;SDS011;7500;57.698;11.986;2023-04-15T14:44:45;5.20;;;3.60;;
14817;SDS011;7500;57.698;11.986;2023-04-15T14:47:11;4.40;;;4.00;;
14817;SDS011;7500;57.698;11.986;2023-04-15T14:49:38;5.90;;;4.03;;